NCAR-RAP Real-Time Weather Data

Output produced by METARs form (12 August 2020  17:53 UTC)
found at http://weather.rap.ucar.edu/surface/
 
KTPA 121653Z VRB03KT 10SM SCT035 BKN200 BKN280 32/22 A3005 RMK AO2 SLP174 CB DSNT SW T03170217
KTPA 121553Z 26006KT 10SM FEW035 BKN200 BKN280 31/22 A3006 RMK AO2 SLP177 CB DSNT NW T03060222
KTPA 121453Z 34003KT 10SM FEW040 SCT180 BKN280 32/21 A3006 RMK AO2 SLP178 CB DSNT W-NW T03170211 52008
KTPA 121353Z 21003KT 10SM FEW025 SCT150 SCT250 30/22 A3005 RMK AO2 SLP174 CB DSNT NW T03000217
KTPA 121253Z 00000KT 10SM FEW020 FEW160 SCT250 27/21 A3005 RMK AO2 SLP175 CB DSNT NW-N T02720211 $
KTPA 121153Z 00000KT 10SM FEW020 FEW160 SCT250 27/21 A3004 RMK AO2 SLP171 CB DSNT W-N 70028 T02670211 10267 20256 53010
KTPA 121053Z 00000KT 10SM FEW035 BKN260 26/22 A3002 RMK AO2 SLP165 OCNL LTGICCA DSNT SW AND W AND NW CB DSNT SW AND W AND NW T02610217
KTPA 120953Z 13003KT 10SM FEW035 BKN260 26/21 A3001 RMK AO2 SLP162 OCNL LTGIC DSNT W AND NW CB DSNT W AND NW T02610206
KTPA 120853Z 10003KT 10SM FEW035 BKN260 26/21 A3001 RMK AO2 SLP161 T02610206 55007 $
KTPA 120753Z 16003KT 10SM FEW035 BKN260 26/20 A3000 RMK AO2 SLP159 T02560200 $
KTPA 120653Z 15003KT 10SM FEW080 BKN260 26/21 A3001 RMK AO2 SLP162 T02610206 $
KTPA 120553Z 16003KT 10SM FEW035 SCT080 BKN260 27/21 A3003 RMK AO2 LTG DSNT NW SLP168 OCNL LTGICCA DSNT W AND NW CB DSNT W AND NW 60000 T02670206 10278 20256 58002 $
KTPA 120453Z 00000KT 10SM FEW080 BKN260 26/21 A3004 RMK AO2 SLP171 T02610211 403330256 $
KTPA 120353Z 00000KT 10SM FEW080 BKN190 BKN260 26/22 A3004 RMK AO2 SLP172 T02560217 $
KTPA 120253Z VRB03KT 10SM FEW080 BKN190 BKN260 26/21 A3003 RMK AO2 SLP170 60000 T02610211 53007 $
KTPA 120153Z 05003KT 10SM BKN190 BKN260 27/21 A3002 RMK AO2 SLP165 T02670211 $
KTPA 120053Z 11004KT 10SM FEW034 BKN130 BKN220 27/21 A3002 RMK AO2 RAE2356 SLP163 TCU DSNT SW P0000 T02720211 $
KTPA 112353Z VRB04KT 10SM -RA FEW044 BKN070 BKN110 BKN220 27/22 A3001 RMK AO2 RAB36 TSB15E51 SLP163 CB DSNT NE-E TCU DSNT N AND W-NW P0000 60000 T02720217 10333 20267 53010 $
KTPA 112316Z 08007KT 040V110 10SM TS BKN036CB BKN090 BKN250 28/21 A3002 RMK AO2 LTG DSNT N-E TSB15 OCNL LTGIC NE CB NE MOV SE T02830206 $
KTPA 112253Z 00000KT 10SM VCTS SCT042CB BKN180 BKN250 31/23 A3001 RMK AO2 LTG DSNT N-SE PRESRR SLP161 CB N-E MOV SE VCSH N-E SHRA DSNT SE-S T03060228 $
KTPA 112221Z 24006KT 10SM VCTS FEW045CB BKN180 BKN250 31/22 A2997 RMK AO2 LTG DSNT NE AND E CB NE-E MOV SE CB DSNT E-S SHRA DSNT E-S T03110222 $
KTPA 112153Z 25008KT 10SM FEW045TCU SCT180 BKN230 32/22 A2997 RMK AO2 LTG DSNT E AND S SLP149 CB DSNT NE-SW TCU N-NE T03220217
KTPA 112133Z 24006KT 10SM FEW045CB SCT150 SCT220 33/22 A2998 RMK AO2 LTG DSNT S CB S-SW MOV SE CB DSNT E-SE TCU N-NE T03280222
KTPA 112117Z 23005KT 10SM VCTS FEW045CB SCT140 SCT220 33/21 A2998 RMK AO2 LTG DSNT E-SW CB S-SW MOV SE CB DSNT E-SE TCU N-NE T03280211
KTPA 112053Z 33004KT 10SM FEW043 SCT160 BKN220 33/22 A2998 RMK AO2 LTG DSNT E SLP153 CB DSNT E-SE AND SW TCU DSNT N AND SW T03330217 56019
KTPA 111953Z 33004KT 10SM FEW043 BKN160 BKN220 32/22 A3001 RMK AO2 LTG DSNT SE SLP160 CB DSNT SE TCU DSNT N-E AND SW T03170217
KTPA 111853Z 33006KT 10SM SCT045 BKN100 BKN250 31/21 A3002 RMK AO2 LTG DSNT E-S TSE46 SLP164 OCNL LTGIC DSNT NE-SE CB DSNT NE-SE T03110211
KTPA 111847Z 34008KT 10SM VCTS SCT045CB BKN110 BKN250 31/21 A3002 RMK AO2 LTG DSNT E-S TSE46 CB NE-SE MOV SE
KTPA 111753Z 26005KT 10SM TS SCT045CB BKN110 BKN250 32/22 A3004 RMK AO2 LTG DSNT E AND W AND NW RAE18 TSE18E25B38 SLP172 OCNL LTGICCG VC NW-E TS VC NW-E MOV SE CB DSNT SE VCSH NW P0000 60028 T03170222 10322 20256
KTPA 111739Z 00000KT 10SM TS SCT045CB SCT110 BKN250 31/22 A3004 RMK AO2 LTG DSNT N AND SE AND NW RAE18 TSE18E25B38 OCNL LTGIC VC NW-N TS VC NW-N MOV SE CB DSNT SE VCSH NW P0000 T03060217
KTPA 111731Z 00000KT 10SM VCTS SCT045CB BKN110 BKN250 29/22 A3005 RMK AO2 LTG DSNT SE AND NW RAE18 TSE18E25 CB NW-N MOV SE CB DSNT SE P0000 T02940222
KTPA 111718Z 00000KT 10SM SCT045CB BKN110 BKN250 28/22 A3005 RMK AO2 LTG DSNT NW RAE18 TSE18 CB NW-N MOV SE CB DSNT SE P0000 T02830222
KTPA 111653Z VRB03KT 8SM -TSRA SCT040CB BKN070 BKN090 27/22 A3006 RMK AO2 WSHFT 1607 RAB15 SLP177 OCNL LTGICCG NE-S TS NE-S MOV SE P0028 T02720222
KTPA 111641Z 06004KT 5SM R01L/4500VP6000FT -TSRA BR SCT035CB BKN065 OVC110 26/22 A3006 RMK AO2 WSHFT 1607 LTG DSNT SW RAB15 OCNL LTGICCG N-SW TS N-SW MOV SE P0028 T02610222
KTPA 111631Z 01009KT 2SM R01L/4000VP6000FT TSRA BR BKN040CB BKN060 OVC100 26/22 A3007 RMK AO2 WSHFT 1607 LTG DSNT S AND SW RAB15 OCNL LTGICCG N-S TS N-S MOV SE CB ALQDS MOV SE P0023 T02560222
KTPA 111625Z 36017G22KT 1/2SM R01L/5000VP6000FT TSRA BR BKN040CB BKN060 OVC100 26/22 A3007 RMK AO2 WSHFT 1607 SFC VIS 1 LTG DSNT S AND SW RAB15 FRQ LTGICCG S-W TS S-W MOV SE CB S-N MOV SE P0014 T02610222
KTPA 111619Z 34012G19KT 1/2SM R01L/5000VP6000FT +TSRA BR BKN040CB OVC100 28/21 A3009 RMK AO2 SFC VIS 1 1/2 VIS 1/2V5 LTG DSNT S AND SW RAB15 PRESRR FRQ LTGICCG S-W TS S-W MOV SE CB S-N MOV SE P0000 T02780211
KTPA 111618Z 33013G19KT 3SM R01L/5000VP6000FT TSRA BR BKN040CB OVC100 28/21 A3009 RMK AO2 LTG DSNT S AND SW RAB15 PRESRR FRQ LTGICCG S-W TS S-W MOV SE CB S-N MOV SE P0000 T02830211
KTPA 111553Z 24006KT 10SM TS BKN035CB BKN070 BKN120 31/23 A3006 RMK AO2 LTG DSNT S AND SW TSB23 SLP179 OCNL LTGICCG VC W TS VC W MOV SE CB S-N MOV SE VCSH W T03060233
KTPA 111523Z 26004KT 10SM TS SCT035CB 32/23 A3007 RMK AO2 LTG DSNT W TSB23 OCNL LTGIC VC W TS VC W MOV SE CB SW-N MOV SE VCSH W T03170233
KTPA 111453Z VRB03KT 10SM FEW030 32/23 A3007 RMK AO2 LTG DSNT N SLP181 CB DSNT N TCU DSNT SW-NW T03170233 51009
KTPA 111353Z 00000KT 10SM FEW030 31/23 A3006 RMK AO2 LTG DSNT N SLP178 CB DSNT N T03110228
KTPA 111253Z 00000KT 10SM FEW025 29/23 A3006 RMK AO2 SLP177 CB DSNT NW T02940233
KTPA 111153Z 18003KT 10SM FEW020 28/22 A3004 RMK AO2 SLP172 CB DSNT NW TCU DSNT SW-W T02780222 10278 20267 53008
KTPA 111053Z 18004KT 10SM FEW040 SCT300 27/22 A3002 RMK AO2 SLP166 CB DSNT NW TCU DSNT SW-W T02670217
KTPA 110953Z 00000KT 10SM FEW040 SCT300 27/22 A3001 RMK AO2 SLP162 FRQ LTGIC DSNT SW CB DSNT SW T02720222
KTPA 110853Z 11003KT 10SM FEW045 SCT300 27/22 A3002 RMK AO2 SLP164 T02720217 58009 $
KTPA 110753Z 13003KT 10SM SCT049 BKN070 27/21 A3002 RMK AO2 LTG DSNT SW AND W SLP167 CONS LTGIC DSNT SW-W CB DSNT SW-W T02720211 $
KTPA 110653Z 11003KT 10SM SCT055 BKN300 27/22 A3004 RMK AO2 SLP171 T02720217 $
KTPA 110553Z 04003KT 10SM FEW030 SCT150 BKN300 28/22 A3004 RMK AO2 SLP172 T02780222 10311 20272 55006 $
KTPA 110453Z 03004KT 10SM FEW030 FEW150 BKN300 28/22 A3004 RMK AO2 SLP171 T02780222 403500250 $
KTPA 110353Z 11004KT 10SM FEW033 FEW075 SCT150 BKN300 29/22 A3005 RMK AO2 SLP174 T02890217 $
KTPA 110253Z 13006KT 10SM BKN033 BKN150 31/22 A3006 RMK AO2 LTG DSNT NE SLP179 T03060222 51013 $
KTPA 110153Z 36004KT 10SM FEW035TCU FEW100 SCT220 30/23 A3005 RMK AO2 LTG DSNT NE AND E SLP174 OCNL LTGICCC DSNT NE-E CB DSNT NE-E TCU S T03000228 $
KTPA 110053Z 36003KT 10SM FEW035 FEW090 SCT160 SCT250 31/22 A3004 RMK AO2 SLP173 CONS LTGICCC DSNT NE-SE CB DSNT NE-SE TCU DSNT S T03060222 $
KTPA 102353Z 00000KT 10SM FEW036 SCT090 SCT160 BKN250 31/22 A3002 RMK AO2 SLP166 CB DSNT NE AND SE-S T03060217 10350 20300 56006 $
KTPA 102253Z 20006KT 10SM FEW026 SCT038 SCT180 BKN250 31/21 A3002 RMK AO2 LTG DSNT E AND SE SLP166 CB DSNT NE-SE AND SW SHRA DSNT NE-SE AND SW T03060211 $
KTPA 102242Z 21009KT 10SM VCTS FEW026 SCT038 SCT160 BKN250 31/22 A3002 RMK AO2 LTG DSNT E AND SE CB DSNT E-SE AND SW SHRA DSNT E-SE AND SW T03060217 $
KTPA 102218Z 00000KT 10SM FEW026 SCT040 BKN160 BKN250 31/22 A3001 RMK AO2 CB DSNT SE AND SW SHRA DSNT SE AND SW T03060217
KTPA 102153Z 34006KT 10SM VCTS FEW028 SCT040 BKN140 BKN250 30/21 A3002 RMK AO2 WSHFT 2041 LTG DSNT S AND SW TSE01 SLP165 CB DSNT SE AND SW SHRA DSNT SE AND SW T03000211
KTPA 102101Z 35008G21KT 10SM VCTS FEW030 BKN046CB BKN080 BKN190 32/22 A3004 RMK AO2 WSHFT 2041 LTG DSNT ALQDS TSE01 OCNL LTGICCG NW-NE TS NW-NE MOV SE CB DSNT SE-SW TCU ALQDS T03170222
KTPA 102053Z 36015G21KT 10SM TS FEW028 SCT044CB BKN080 BKN190 33/22 A3004 RMK AO2 LTG DSNT ALQDS TSB28 SLP173 OCNL LTGICCG NW-SE TS NW-SE MOV SE TCU ALQDS T03330222 56011
KTPA 102031Z 26008KT 10SM TS SCT046CB SCT070 34/22 A3004 RMK AO2 LTG DSNT ALQDS TSB28 OCNL LTGICCG NW-N TS NW-N MOV SE TCU DSNT SE AND SW T03440222
KTPA 102002Z 27009KT 10SM VCTS SCT045CB SCT070 34/22 A3005 RMK AO2 LTG DSNT N AND NW CB NW-N MOV SE TCU NE AND DSNT SE AND SW T03390222
KTPA 101953Z 26008KT 10SM SCT045CB SCT070 34/23 A3005 RMK AO2 LTG DSNT N AND NW TSE24 SLP174 CB NW-N MOV S TCU NE AND DSNT SE AND SW T03440228
KTPA 101928Z VRB05KT 10SM VCTS SCT044CB SCT070 34/23 A3006 RMK AO2 LTG DSNT W-N TSE24 CB NW-N MOV S TCU N-E AND DSNT SE T03390228
KTPA 101853Z 24006KT 10SM SCT045TCU BKN070 33/23 A3008 RMK AO2 LTG DSNT N SLP183 TCU W-NW T03330228